createdAt,value
2024-02-21T00:01:41.293Z,98383.97
2024-02-21T00:04:08.935Z,98380.91
2024-02-21T00:06:36.536Z,98378.25
2024-02-21T00:09:04.154Z,98372.69
2024-02-21T00:11:31.776Z,98374.97
2024-02-21T00:13:59.454Z,98375.13
2024-02-21T00:16:27.137Z,98380.44
2024-02-21T00:18:56.194Z,98383.78
2024-02-21T00:21:23.823Z,98380.91
2024-02-21T00:23:51.451Z,98375.47
2024-02-21T00:26:19.050Z,98368.53
2024-02-21T00:28:46.718Z,98363.59
2024-02-21T00:31:14.558Z,98363.69
2024-02-21T00:33:42.173Z,98350.63
2024-02-21T00:36:11.125Z,98348.13
2024-02-21T00:38:38.700Z,98350.63
2024-02-21T00:41:06.336Z,98358.28
2024-02-21T00:43:34.019Z,98362.88
2024-02-21T00:46:01.650Z,98350.34
2024-02-21T00:48:29.650Z,98357.91
2024-02-21T00:50:57.390Z,98347.28
2024-02-21T00:53:26.390Z,98342.66
2024-02-21T00:55:54.120Z,98344.41
2024-02-21T00:58:22.014Z,98332.66
2024-02-21T01:00:49.883Z,98338.31
2024-02-21T01:03:17.545Z,98336.28
2024-02-21T01:05:45.179Z,98330.97
2024-02-21T01:08:13.074Z,98315.66
2024-02-21T01:10:42.153Z,98312.47
2024-02-21T01:13:09.838Z,98301.34
2024-02-21T01:15:37.708Z,98305.69
2024-02-21T01:18:05.509Z,98307.56
2024-02-21T01:20:33.195Z,98302.22
2024-02-21T01:23:02.115Z,98301.56
2024-02-21T01:25:29.852Z,98300.44
2024-02-21T01:27:59.269Z,98302.97
2024-02-21T01:30:26.877Z,98297.22
2024-02-21T01:32:54.524Z,98306.28
2024-02-21T01:35:22.189Z,98293.09
2024-02-21T01:37:49.947Z,98280.81
2024-02-21T01:40:17.847Z,98287.56
2024-02-21T01:42:45.512Z,98271.88
2024-02-21T01:45:16.991Z,98271.06
2024-02-21T01:47:47.076Z,98267.22
2024-02-21T01:50:16.817Z,98266.13
2024-02-21T01:52:48.817Z,98263.97
2024-02-21T01:55:17.312Z,98258.03
2024-02-21T01:57:45.802Z,98261.16
2024-02-21T02:00:17.158Z,98254.69
2024-02-21T02:02:45.228Z,98257.09
2024-02-21T02:05:12.857Z,98256.59
2024-02-21T02:07:40.434Z,98250.50
2024-02-21T02:10:08.903Z,98252.91
2024-02-21T02:12:36.834Z,98245.94
2024-02-21T02:15:05.172Z,98241.59
2024-02-21T02:17:34.160Z,98235.59
2024-02-21T02:20:02.238Z,98237.28
2024-02-21T02:22:32.749Z,98227.41
2024-02-21T02:25:02.804Z,98219.78
2024-02-21T02:27:30.408Z,98210.59
2024-02-21T02:29:57.995Z,98221.59
2024-02-21T02:32:25.634Z,98215.81
2024-02-21T02:34:53.291Z,98215.81
2024-02-21T02:37:21.067Z,98219.13
2024-02-21T02:39:48.666Z,98210.50
2024-02-21T02:42:17.580Z,98213.91
2024-02-21T02:44:45.495Z,98218.69
2024-02-21T02:47:13.151Z,98208.38
2024-02-21T02:49:40.792Z,98201.97
2024-02-21T02:52:08.486Z,98201.78
2024-02-21T02:54:36.091Z,98202.75
2024-02-21T02:57:03.844Z,98192.03
2024-02-21T02:59:32.777Z,98192.28
2024-02-21T03:02:00.445Z,98192.75
2024-02-21T03:04:28.273Z,98197.53
2024-02-21T03:06:55.974Z,98184.84
2024-02-21T03:09:23.596Z,98168.56
2024-02-21T03:11:51.505Z,98169.66
2024-02-21T03:14:19.299Z,98165.53
2024-02-21T03:16:48.266Z,98167.88
2024-02-21T03:19:16.047Z,98168.81
2024-02-21T03:21:43.636Z,98170.16
2024-02-21T03:24:11.338Z,98167.78
2024-02-21T03:26:38.915Z,98172.00
2024-02-21T03:29:06.532Z,98166.59
2024-02-21T03:31:34.304Z,98159.97
2024-02-21T03:34:03.346Z,98147.94
2024-02-21T03:36:31.016Z,98147.09
2024-02-21T03:38:58.662Z,98146.44
2024-02-21T03:41:26.273Z,98136.16
2024-02-21T03:43:53.885Z,98141.22
2024-02-21T03:46:21.809Z,98136.41
2024-02-21T03:48:49.512Z,98136.41
2024-02-21T03:51:18.581Z,98133.47
2024-02-21T03:53:46.237Z,98130.06
2024-02-21T03:56:13.820Z,98126.53
2024-02-21T03:58:41.477Z,98142.56
2024-02-21T04:01:09.218Z,98144.66
2024-02-21T04:03:37.391Z,98139.78
2024-02-21T04:06:05.625Z,98136.88
2024-02-21T04:08:34.678Z,98134.69
2024-02-21T04:11:02.489Z,98142.22
2024-02-21T04:13:30.152Z,98137.75
2024-02-21T04:15:57.842Z,98139.06
2024-02-21T04:18:25.424Z,98147.56
2024-02-21T04:20:53.109Z,98134.28
2024-02-21T04:23:20.734Z,98129.94
2024-02-21T04:25:49.813Z,98129.88
2024-02-21T04:28:17.551Z,98126.09
2024-02-21T04:30:45.301Z,98133.25
2024-02-21T04:33:13.012Z,98127.00
2024-02-21T04:35:40.694Z,98138.00
2024-02-21T04:38:08.402Z,98131.13
2024-02-21T04:40:36.021Z,98125.06
2024-02-21T04:43:05.078Z,98117.59
2024-02-21T04:45:32.661Z,98107.94
2024-02-21T04:48:00.358Z,98104.25
2024-02-21T04:50:28.034Z,98099.25
2024-02-21T04:52:55.733Z,98098.97
2024-02-21T04:55:23.422Z,98090.41
2024-02-21T04:57:51.039Z,98092.28
2024-02-21T05:00:20.714Z,98087.47
2024-02-21T05:02:48.366Z,98093.28
2024-02-21T05:05:16.280Z,98094.38
2024-02-21T05:07:44.030Z,98095.94
2024-02-21T05:10:11.718Z,98085.97
2024-02-21T05:12:39.288Z,98088.13
2024-02-21T05:15:07.841Z,98089.38
2024-02-21T05:17:37.016Z,98087.03
2024-02-21T05:20:05.566Z,98088.91
2024-02-21T05:22:33.404Z,98085.31
2024-02-21T05:25:01.072Z,98078.88
2024-02-21T05:27:28.695Z,98082.34
2024-02-21T05:29:56.287Z,98084.97
2024-02-21T05:32:23.897Z,98083.81
2024-02-21T05:34:52.943Z,98086.75
2024-02-21T05:37:20.577Z,98092.25
2024-02-21T05:39:48.215Z,98095.13
2024-02-21T05:42:15.829Z,98094.91
2024-02-21T05:44:43.394Z,98088.97
2024-02-21T05:47:11.086Z,98095.28
2024-02-21T05:49:38.944Z,98079.41
2024-02-21T05:52:08.224Z,98083.06
2024-02-21T05:54:38.756Z,98079.81
2024-02-21T05:57:06.748Z,98087.47
2024-02-21T05:59:34.363Z,98086.53
2024-02-21T06:02:01.958Z,98087.88
2024-02-21T06:04:29.701Z,98090.34
2024-02-21T06:06:57.415Z,98087.06
2024-02-21T06:09:26.371Z,98088.13
2024-02-21T06:11:54.160Z,98083.44
2024-02-21T06:14:21.795Z,98075.56
2024-02-21T06:16:49.512Z,98076.56
2024-02-21T06:19:17.392Z,98074.81
2024-02-21T06:21:45.183Z,98083.34
2024-02-21T06:24:12.773Z,98073.66
2024-02-21T06:26:42.013Z,98081.63
2024-02-21T06:29:09.615Z,98078.31
2024-02-21T06:31:37.457Z,98073.69
2024-02-21T06:34:05.471Z,98078.25
2024-02-21T06:36:33.197Z,98084.69
2024-02-21T06:39:00.900Z,98093.00
2024-02-21T06:41:28.501Z,98100.31
2024-02-21T06:43:57.585Z,98102.84
2024-02-21T06:46:26.047Z,98102.41
2024-02-21T06:48:53.916Z,98095.38
2024-02-21T06:51:21.606Z,98105.69
2024-02-21T06:53:49.292Z,98107.97
2024-02-21T06:56:16.957Z,98117.16
2024-02-21T06:58:44.801Z,98119.75
2024-02-21T07:01:13.840Z,98118.22
2024-02-21T07:03:41.483Z,98115.03
2024-02-21T07:06:09.189Z,98121.88
2024-02-21T07:08:36.864Z,98116.38
2024-02-21T07:11:04.834Z,98123.69
2024-02-21T07:13:33.603Z,98113.16
2024-02-21T07:16:01.268Z,98113.06
2024-02-21T07:18:30.251Z,98110.22
2024-02-21T07:20:57.887Z,98106.66
2024-02-21T07:23:25.521Z,98108.00
2024-02-21T07:25:53.224Z,98101.31
2024-02-21T07:28:20.896Z,98103.56
2024-02-21T07:30:48.530Z,98106.53
2024-02-21T07:33:16.199Z,98101.09
2024-02-21T07:35:45.263Z,98101.56
2024-02-21T07:38:12.954Z,98104.84
2024-02-21T07:40:40.675Z,98102.75
2024-02-21T07:43:08.498Z,98107.31
2024-02-21T07:45:36.168Z,98108.28
2024-02-21T07:48:04.484Z,98104.16
2024-02-21T07:50:32.420Z,98110.28
2024-02-21T07:53:01.555Z,98105.38
2024-02-21T07:55:29.257Z,98106.56
2024-02-21T07:57:57.225Z,98109.19
2024-02-21T08:00:24.830Z,98093.56
2024-02-21T08:02:52.606Z,98099.34
2024-02-21T08:05:20.354Z,98103.28
2024-02-21T08:07:49.636Z,98102.22
2024-02-21T08:10:19.111Z,98097.78
2024-02-21T08:12:47.007Z,98095.13
2024-02-21T08:15:14.799Z,98103.78
2024-02-21T08:17:42.434Z,98097.16
2024-02-21T08:20:11.538Z,98099.78
2024-02-21T08:22:39.402Z,98088.44
2024-02-21T08:25:07.555Z,98091.00
2024-02-21T08:27:38.347Z,98091.09
2024-02-21T08:30:07.057Z,98091.59
2024-02-21T08:32:34.928Z,98090.66
2024-02-21T08:35:02.651Z,98081.66
2024-02-21T08:37:30.307Z,98083.31
2024-02-21T08:39:57.951Z,98081.25
2024-02-21T08:42:25.527Z,98077.72
2024-02-21T08:44:54.465Z,98076.69
2024-02-21T08:47:22.034Z,98072.59
2024-02-21T08:49:49.711Z,98072.59
2024-02-21T08:52:17.339Z,98072.56
2024-02-21T08:54:44.923Z,98084.75
2024-02-21T08:57:12.559Z,98087.94
2024-02-21T08:59:40.220Z,98076.22
2024-02-21T09:02:09.234Z,98081.06
2024-02-21T09:04:37.042Z,98078.31
2024-02-21T09:07:05.119Z,98074.69
2024-02-21T09:09:32.848Z,98075.03
2024-02-21T09:12:00.644Z,98075.16
2024-02-21T09:14:28.383Z,98070.06
2024-02-21T09:16:56.051Z,98076.13
2024-02-21T09:19:25.445Z,98072.03
2024-02-21T09:21:53.237Z,98073.09
2024-02-21T09:24:20.894Z,98083.84
2024-02-21T09:26:48.489Z,98074.63
2024-02-21T09:29:16.238Z,98074.69
2024-02-21T09:31:44.230Z,98073.59
2024-02-21T09:34:11.943Z,98074.00
2024-02-21T09:36:40.981Z,98082.84
2024-02-21T09:39:08.648Z,98086.19
2024-02-21T09:41:40.899Z,98090.97
2024-02-21T09:44:13.198Z,98083.22
2024-02-21T09:46:56.813Z,98080.53
2024-02-21T09:49:31.923Z,98079.69
2024-02-21T09:52:02.975Z,98078.38
2024-02-21T09:54:30.915Z,98073.00
2024-02-21T09:56:58.548Z,98073.66
2024-02-21T09:59:28.392Z,98066.63
2024-02-21T10:01:56.160Z,98065.28
2024-02-21T10:04:24.931Z,98062.50
2024-02-21T10:06:54.298Z,98060.63
2024-02-21T10:09:24.607Z,98047.06
2024-02-21T10:11:53.360Z,98051.88
2024-02-21T10:14:21.433Z,98052.31
2024-02-21T10:16:50.348Z,98045.94
2024-02-21T10:19:19.047Z,98048.72
2024-02-21T10:22:00.941Z,98047.13
2024-02-21T10:24:30.430Z,98045.34
2024-02-21T10:27:02.902Z,98047.53
2024-02-21T10:29:31.233Z,98042.00
2024-02-21T10:32:09.797Z,98035.53
2024-02-21T10:34:38.940Z,98028.94
2024-02-21T10:37:08.275Z,98020.47
2024-02-21T10:39:39.379Z,98010.47
2024-02-21T10:42:07.192Z,98005.38
2024-02-21T10:44:38.691Z,98004.84
2024-02-21T10:47:09.705Z,97996.72
2024-02-21T10:49:40.680Z,97994.47
2024-02-21T10:52:15.556Z,97987.81
2024-02-21T10:54:54.320Z,97987.44
2024-02-21T10:57:24.254Z,97988.16
2024-02-21T10:59:52.246Z,97978.03
2024-02-21T11:02:21.163Z,97974.81
2024-02-21T11:04:50.962Z,97960.22
2024-02-21T11:07:20.096Z,97949.69
2024-02-21T11:09:54.582Z,97945.03
2024-02-21T11:12:23.596Z,97940.16
2024-02-21T11:14:51.459Z,97931.63
2024-02-21T11:17:20.635Z,97925.03
2024-02-21T11:19:51.157Z,97920.31
2024-02-21T11:22:21.527Z,97913.66
2024-02-21T11:24:49.275Z,97911.22
2024-02-21T11:27:21.464Z,97907.13
2024-02-21T11:29:50.748Z,97905.13
2024-02-21T11:32:20.449Z,97897.84
2024-02-21T11:34:55.763Z,97893.53
2024-02-21T11:37:26.305Z,97883.63
2024-02-21T11:39:54.368Z,97878.78
2024-02-21T11:42:23.613Z,97883.22
2024-02-21T11:44:51.229Z,97873.84
2024-02-21T11:47:19.189Z,97874.31
2024-02-21T11:49:48.414Z,97869.16
2024-02-21T11:52:16.165Z,97865.72
2024-02-21T11:54:43.937Z,97857.94
2024-02-21T11:57:12.142Z,97857.06
2024-02-21T11:59:42.965Z,97853.25
2024-02-21T12:02:12.389Z,97846.81
2024-02-21T12:04:40.372Z,97840.25
2024-02-21T12:07:08.286Z,97835.72
2024-02-21T12:09:36.186Z,97829.34
2024-02-21T12:12:06.089Z,97826.50
2024-02-21T12:14:35.550Z,97819.75
2024-02-21T12:17:04.977Z,97814.94
2024-02-21T12:19:34.676Z,97807.66
2024-02-21T12:22:02.905Z,97800.88
2024-02-21T12:24:30.628Z,97805.06
2024-02-21T12:26:58.512Z,97797.03
2024-02-21T12:29:26.434Z,97790.47
2024-02-21T12:31:54.697Z,97791.88
2024-02-21T12:34:31.444Z,97772.41
2024-02-21T12:37:06.413Z,97768.94
2024-02-21T12:39:34.008Z,97764.72
2024-02-21T12:42:01.698Z,97746.53
2024-02-21T12:44:29.313Z,97743.09
2024-02-21T12:46:56.999Z,97732.38
2024-02-21T12:49:26.792Z,97734.75
2024-02-21T12:51:54.545Z,97723.13
2024-02-21T12:54:22.203Z,97719.28
2024-02-21T12:56:49.962Z,97725.59
2024-02-21T12:59:19.968Z,97701.31
2024-02-21T13:01:47.927Z,97688.84
2024-02-21T13:04:15.785Z,97683.75
2024-02-21T13:06:44.769Z,97680.38
2024-02-21T13:09:12.722Z,97677.66
2024-02-21T13:11:40.649Z,97665.06
2024-02-21T13:14:08.489Z,97653.31
2024-02-21T13:16:36.310Z,97661.00
2024-02-21T13:19:04.140Z,97655.13
2024-02-21T13:21:31.956Z,97647.81
2024-02-21T13:24:00.899Z,97637.16
2024-02-21T13:26:28.533Z,97634.69
2024-02-21T13:28:56.555Z,97626.13
2024-02-21T13:31:25.551Z,97624.38
2024-02-21T13:33:53.705Z,97610.06
2024-02-21T13:36:21.536Z,97613.84
2024-02-21T13:38:49.229Z,97604.47
2024-02-21T13:41:18.304Z,97593.75
2024-02-21T13:43:45.949Z,97588.19
2024-02-21T13:46:13.588Z,97578.53
2024-02-21T13:48:41.248Z,97577.09
2024-02-21T13:51:08.868Z,97572.84
2024-02-21T13:53:36.607Z,97567.16
2024-02-21T13:56:04.805Z,97553.06
2024-02-21T13:58:33.860Z,97552.03
2024-02-21T14:01:01.523Z,97549.03
2024-02-21T14:03:29.242Z,97552.97
2024-02-21T14:05:56.926Z,97543.97
2024-02-21T14:08:24.559Z,97535.66
2024-02-21T14:10:52.323Z,97526.53
2024-02-21T14:13:20.019Z,97527.44
2024-02-21T14:15:48.986Z,97520.69
2024-02-21T14:18:16.945Z,97517.50
2024-02-21T14:20:44.575Z,97514.19
2024-02-21T14:23:12.370Z,97511.84
2024-02-21T14:25:40.553Z,97510.41
2024-02-21T14:28:09.069Z,97508.03
2024-02-21T14:30:37.018Z,97507.94
2024-02-21T14:33:06.291Z,97513.38
2024-02-21T14:35:34.069Z,97496.38
2024-02-21T14:38:02.034Z,97506.44
2024-02-21T14:40:29.690Z,97496.66
2024-02-21T14:42:57.317Z,97497.91
2024-02-21T14:45:24.948Z,97494.09
2024-02-21T14:47:52.674Z,97492.13
2024-02-21T14:50:21.655Z,97481.63
2024-02-21T14:52:49.316Z,97467.72
2024-02-21T14:55:17.141Z,97472.06
2024-02-21T14:57:44.859Z,97463.88
2024-02-21T15:00:13.350Z,97467.84
2024-02-21T15:02:41.051Z,97462.03
2024-02-21T15:05:09.361Z,97442.38
2024-02-21T15:07:39.205Z,97443.50
2024-02-21T15:10:07.132Z,97449.38
2024-02-21T15:12:34.737Z,97440.03
2024-02-21T15:15:02.366Z,97434.69
2024-02-21T15:17:30.001Z,97427.34
2024-02-21T15:19:57.806Z,97428.88
2024-02-21T15:22:25.583Z,97431.50
2024-02-21T15:24:54.630Z,97429.41
2024-02-21T15:27:22.222Z,97432.28
2024-02-21T15:29:49.862Z,97432.44
2024-02-21T15:32:17.515Z,97427.81
2024-02-21T15:34:46.454Z,97418.59
2024-02-21T15:37:14.173Z,97421.28
2024-02-21T15:39:41.810Z,97423.88
2024-02-21T15:42:11.162Z,97415.69
2024-02-21T15:44:38.898Z,97406.75
2024-02-21T15:47:06.776Z,97396.47
2024-02-21T15:49:34.535Z,97410.53
2024-02-21T15:52:02.543Z,97395.91
2024-02-21T15:54:30.215Z,97396.97
2024-02-21T15:56:57.791Z,97414.44
2024-02-21T15:59:26.804Z,97396.28
2024-02-21T16:01:54.459Z,97401.97
2024-02-21T16:04:22.235Z,97406.25
2024-02-21T16:06:49.942Z,97396.81
2024-02-21T16:09:17.984Z,97402.22
2024-02-21T16:11:45.664Z,97406.66
2024-02-21T16:14:13.357Z,97399.78
2024-02-21T16:16:42.368Z,97408.94
2024-02-21T16:19:10.118Z,97406.94
2024-02-21T16:21:37.788Z,97407.22
2024-02-21T16:24:05.885Z,97394.47
2024-02-21T16:26:35.537Z,97397.88
2024-02-21T16:29:04.398Z,97401.03
2024-02-21T16:31:32.068Z,97400.09
2024-02-21T16:34:01.128Z,97390.25
2024-02-21T16:36:28.768Z,97396.13
2024-02-21T16:39:00.207Z,97388.16
2024-02-21T16:41:28.177Z,97382.97
2024-02-21T16:43:55.855Z,97392.44
2024-02-21T16:46:23.508Z,97377.28
2024-02-21T16:48:51.108Z,97371.97
2024-02-21T16:51:21.127Z,97372.34
2024-02-21T16:53:48.950Z,97359.72
2024-02-21T16:56:16.735Z,97368.53
2024-02-21T16:58:44.369Z,97358.59
2024-02-21T17:01:14.159Z,97352.06
2024-02-21T17:03:42.960Z,97339.22
2024-02-21T17:06:16.576Z,97336.47
2024-02-21T17:08:47.773Z,97333.25
2024-02-21T17:11:15.949Z,97332.53
2024-02-21T17:13:43.794Z,97334.50
2024-02-21T17:16:11.460Z,97327.34
2024-02-21T17:18:39.222Z,97332.97
2024-02-21T17:21:07.434Z,97341.31
2024-02-21T17:23:35.008Z,97335.50
2024-02-21T17:26:04.490Z,97340.66
2024-02-21T17:28:32.896Z,97345.19
2024-02-21T17:31:00.820Z,97337.69
2024-02-21T17:33:33.086Z,97338.28
2024-02-21T17:36:00.738Z,97334.19
2024-02-21T17:38:28.339Z,97325.00
2024-02-21T17:40:56.269Z,97343.88
2024-02-21T17:43:25.256Z,97330.69
2024-02-21T17:45:53.165Z,97321.41
2024-02-21T17:48:20.841Z,97320.78
2024-02-21T17:50:48.505Z,97327.91
2024-02-21T17:53:16.162Z,97331.97
2024-02-21T17:55:43.913Z,97326.72
2024-02-21T17:58:11.624Z,97329.44
2024-02-21T18:00:40.575Z,97321.72
2024-02-21T18:03:10.243Z,97319.66
2024-02-21T18:05:39.107Z,97317.47
2024-02-21T18:08:07.326Z,97325.78
2024-02-21T18:10:35.053Z,97313.22
2024-02-21T18:13:02.706Z,97311.59
2024-02-21T18:15:30.361Z,97309.13
2024-02-21T18:17:59.470Z,97301.94
2024-02-21T18:20:27.192Z,97309.84
2024-02-21T18:22:54.978Z,97310.22
2024-02-21T18:25:22.803Z,97294.47
2024-02-21T18:27:50.454Z,97288.22
2024-02-21T18:30:18.314Z,97279.41
2024-02-21T18:32:45.954Z,97298.28
2024-02-21T18:35:15.192Z,97297.53
2024-02-21T18:37:43.064Z,97286.81
2024-02-21T18:40:11.337Z,97275.75
2024-02-21T18:42:39.384Z,97288.56
2024-02-21T18:45:07.880Z,97284.06
2024-02-21T18:47:35.862Z,97287.44
2024-02-21T18:50:04.101Z,97288.72
2024-02-21T18:52:33.372Z,97279.91
2024-02-21T18:55:01.963Z,97283.31
2024-02-21T18:57:29.584Z,97273.00
2024-02-21T18:59:57.191Z,97275.25
2024-02-21T19:02:24.813Z,97263.56
2024-02-21T19:04:52.641Z,97269.34
2024-02-21T19:07:20.318Z,97263.81
2024-02-21T19:09:49.299Z,97266.44
2024-02-21T19:12:16.927Z,97257.59
2024-02-21T19:14:44.526Z,97251.63
2024-02-21T19:17:12.195Z,97248.53
2024-02-21T19:19:39.880Z,97245.81
2024-02-21T19:22:07.465Z,97245.28
2024-02-21T19:24:35.107Z,97238.75
2024-02-21T19:27:04.715Z,97236.38
2024-02-21T19:29:32.323Z,97251.34
2024-02-21T19:32:00.007Z,97219.75
2024-02-21T19:34:28.347Z,97228.44
2024-02-21T19:36:56.018Z,97225.19
2024-02-21T19:39:23.582Z,97209.41
2024-02-21T19:41:51.156Z,97209.06
2024-02-21T19:44:20.127Z,97212.53
2024-02-21T19:46:48.796Z,97211.59
2024-02-21T19:49:16.639Z,97207.31
2024-02-21T19:51:44.271Z,97204.97
2024-02-21T19:54:23.152Z,97197.22
2024-02-21T19:56:52.295Z,97192.16
2024-02-21T19:59:21.442Z,97186.50
2024-02-21T20:01:49.281Z,97187.59
2024-02-21T20:04:17.251Z,97193.38
2024-02-21T20:06:45.234Z,97189.00
2024-02-21T20:09:12.951Z,97186.22
2024-02-21T20:11:40.805Z,97178.22
2024-02-21T20:14:08.567Z,97187.59
2024-02-21T20:16:37.754Z,97173.13
2024-02-21T20:19:05.494Z,97165.41
2024-02-21T20:21:33.138Z,97162.72
2024-02-21T20:24:02.166Z,97174.63
2024-02-21T20:26:29.850Z,97172.00
2024-02-21T20:28:57.466Z,97169.94
2024-02-21T20:31:25.193Z,97171.75
2024-02-21T20:33:54.240Z,97169.19
2024-02-21T20:36:21.828Z,97157.31
2024-02-21T20:38:49.479Z,97170.75
2024-02-21T20:41:17.610Z,97170.09
2024-02-21T20:43:45.655Z,97151.47
2024-02-21T20:46:14.252Z,97160.03
2024-02-21T20:48:42.253Z,97158.09
2024-02-21T20:51:11.200Z,97156.94
2024-02-21T20:53:38.765Z,97157.03
2024-02-21T20:56:07.123Z,97155.59
2024-02-21T20:58:34.814Z,97146.19
2024-02-21T21:01:02.898Z,97154.44
2024-02-21T21:03:32.607Z,97154.88
2024-02-21T21:06:01.068Z,97156.06
2024-02-21T21:08:30.068Z,97139.56
2024-02-21T21:10:57.842Z,97144.19
2024-02-21T21:13:30.869Z,97136.94
2024-02-21T21:16:02.928Z,97131.59
2024-02-21T21:18:31.020Z,97127.75
2024-02-21T21:20:59.578Z,97133.13
2024-02-21T21:23:27.415Z,97132.72
2024-02-21T21:25:56.509Z,97128.88
2024-02-21T21:28:24.353Z,97124.31
2024-02-21T21:30:52.082Z,97121.66
2024-02-21T21:33:19.897Z,97119.34
2024-02-21T21:35:47.744Z,97118.56
2024-02-21T21:38:15.385Z,97116.66
2024-02-21T21:40:43.235Z,97116.66
2024-02-21T21:43:12.394Z,97117.03
2024-02-21T21:45:39.970Z,97115.88
2024-02-21T21:48:08.888Z,97112.03
2024-02-21T21:50:36.579Z,97111.28
2024-02-21T21:53:04.829Z,97112.44
2024-02-21T21:55:32.735Z,97114.69
2024-02-21T21:58:00.475Z,97109.75
2024-02-21T22:00:29.458Z,97113.59
2024-02-21T22:02:57.040Z,97112.81
2024-02-21T22:05:24.696Z,97111.31
2024-02-21T22:07:52.377Z,97120.47
2024-02-21T22:10:20.029Z,97105.16
2024-02-21T22:12:47.641Z,97079.16
2024-02-21T22:15:15.436Z,97092.94
2024-02-21T22:17:44.481Z,97104.78
2024-02-21T22:20:12.438Z,97111.66
2024-02-21T22:22:40.261Z,97107.06
2024-02-21T22:25:08.656Z,97104.31
2024-02-21T22:27:36.325Z,97100.03
2024-02-21T22:30:04.874Z,97097.34
2024-02-21T22:32:32.645Z,97103.94
2024-02-21T22:35:02.191Z,97103.16
2024-02-21T22:37:29.941Z,97103.50
2024-02-21T22:39:58.461Z,97100.38
2024-02-21T22:42:26.102Z,97094.19
2024-02-21T22:44:53.724Z,97100.38
2024-02-21T22:47:22.304Z,97106.47
2024-02-21T22:49:50.033Z,97093.47
2024-02-21T22:52:19.063Z,97103.81
2024-02-21T22:54:46.706Z,97100.72
2024-02-21T22:57:14.350Z,97101.16
2024-02-21T22:59:42.030Z,97093.03
2024-02-21T23:02:09.822Z,97098.25
2024-02-21T23:04:37.706Z,97094.03
2024-02-21T23:07:05.762Z,97093.56
2024-02-21T23:09:34.859Z,97106.22
2024-02-21T23:12:02.708Z,97102.00
2024-02-21T23:14:31.970Z,97085.59
2024-02-21T23:16:59.679Z,97094.75
2024-02-21T23:19:27.520Z,97090.53
2024-02-21T23:21:55.433Z,97084.03
2024-02-21T23:24:23.121Z,97094.78
2024-02-21T23:26:52.227Z,97082.50
2024-02-21T23:29:19.966Z,97077.94
2024-02-21T23:31:47.664Z,97076.47
2024-02-21T23:34:15.352Z,97078.00
2024-02-21T23:36:43.073Z,97067.25
2024-02-21T23:39:10.784Z,97070.81
2024-02-21T23:41:38.594Z,97071.88
2024-02-21T23:44:07.893Z,97071.13
2024-02-21T23:46:35.661Z,97071.47
2024-02-21T23:49:03.523Z,97063.88
2024-02-21T23:51:31.386Z,97076.06
2024-02-21T23:53:59.615Z,97068.09
2024-02-21T23:56:27.292Z,97064.59
2024-02-21T23:58:55.200Z,97063.13
